Time,TemperatureF,DewpointF,PressureIn,WindDirection,WindDirectionDegrees,WindSpeedMPH,WindSpeedGustMPH,Humidity,HourlyPrecipIn,Conditions,Clouds,dailyrainin,SoftwareType,DateUTC
2013-09-23 00:05:00,63.3,51.3,29.68,ESE,112,1.7,-999.0,65,-99.99,,,0.00,Acu-Link.com,2013-09-23 05:05:00,
2013-09-23 00:20:00,62.1,51.0,29.68,ESE,112,0.0,-999.0,67,-99.99,,,0.00,Acu-Link.com,2013-09-23 05:20:00,
2013-09-23 00:35:00,61.2,51.7,29.69,ESE,112,0.0,-999.0,71,-99.99,,,0.00,Acu-Link.com,2013-09-23 05:35:00,
2013-09-23 00:50:00,60.6,51.9,29.67,ESE,112,0.0,-999.0,73,-99.99,,,0.00,Acu-Link.com,2013-09-23 05:50:00,
2013-09-23 01:06:00,59.5,51.6,29.68,ESE,112,0.0,-999.0,75,-99.99,,,0.00,Acu-Link.com,2013-09-23 06:06:00,
2013-09-23 01:21:00,59.2,52.0,29.68,ESE,112,0.0,-999.0,77,-99.99,,,0.00,Acu-Link.com,2013-09-23 06:21:00,
2013-09-23 01:36:00,58.3,51.5,29.67,ESE,112,1.1,-999.0,78,-99.99,,,0.00,Acu-Link.com,2013-09-23 06:36:00,
2013-09-23 01:52:00,58.1,51.3,29.67,ESE,112,0.0,-999.0,78,-99.99,,,0.00,Acu-Link.com,2013-09-23 06:52:00,
2013-09-23 02:07:00,57.6,50.4,29.67,ESE,112,0.0,-999.0,77,-99.99,,,0.00,Acu-Link.com,2013-09-23 07:07:00,
2013-09-23 02:22:00,57.0,51.2,29.67,ESE,112,0.0,-999.0,81,-99.99,,,0.00,Acu-Link.com,2013-09-23 07:22:00,
2013-09-23 02:38:00,57.4,50.9,29.66,ESE,112,0.0,-999.0,79,-99.99,,,0.00,Acu-Link.com,2013-09-23 07:38:00,
2013-09-23 02:53:00,57.0,51.2,29.66,ESE,112,0.0,-999.0,81,-99.99,,,0.00,Acu-Link.com,2013-09-23 07:53:00,
2013-09-23 03:09:00,56.7,50.9,29.66,ESE,112,0.0,-999.0,81,-99.99,,,0.00,Acu-Link.com,2013-09-23 08:09:00,
2013-09-23 03:25:00,56.5,50.4,29.66,ESE,112,0.0,-999.0,80,-99.99,,,0.00,Acu-Link.com,2013-09-23 08:25:00,
2013-09-23 03:40:00,55.9,50.8,29.66,ESE,112,0.0,-999.0,83,-99.99,,,0.00,Acu-Link.com,2013-09-23 08:40:00,
2013-09-23 03:55:00,55.9,50.5,29.65,ESE,112,0.0,-999.0,82,-99.99,,,0.00,Acu-Link.com,2013-09-23 08:55:00,
2013-09-23 04:11:00,57.6,51.8,29.65,SW,225,1.7,-999.0,81,-99.99,,,0.00,Acu-Link.com,2013-09-23 09:11:00,
2013-09-23 04:26:00,56.7,52.6,29.65,SW,225,0.0,-999.0,86,-99.99,,,0.00,Acu-Link.com,2013-09-23 09:26:00,
2013-09-23 04:41:00,55.8,51.4,29.65,SW,225,0.0,-999.0,85,-99.99,,,0.00,Acu-Link.com,2013-09-23 09:41:00,
2013-09-23 04:56:00,54.5,50.4,29.65,SW,225,0.0,-999.0,86,-99.99,,,0.00,Acu-Link.com,2013-09-23 09:56:00,
2013-09-23 05:12:00,54.9,52.3,29.65,SW,225,0.0,-999.0,91,-99.99,,,0.00,Acu-Link.com,2013-09-23 10:12:00,
2013-09-23 05:27:00,54.5,52.5,29.64,South,180,1.1,-999.0,93,-99.99,,,0.00,Acu-Link.com,2013-09-23 10:27:00,
2013-09-23 05:43:00,54.5,52.2,29.65,South,180,0.0,-999.0,92,-99.99,,,0.00,Acu-Link.com,2013-09-23 10:43:00,
2013-09-23 05:58:00,54.9,52.6,29.65,East,90,2.2,-999.0,92,-99.99,,,0.00,Acu-Link.com,2013-09-23 10:58:00,
2013-09-23 06:13:00,54.5,51.9,29.64,East,90,0.0,-999.0,91,-99.99,,,0.00,Acu-Link.com,2013-09-23 11:13:00,
2013-09-23 06:28:00,54.0,51.4,29.65,East,90,0.0,-999.0,91,-99.99,,,0.00,Acu-Link.com,2013-09-23 11:28:00,
2013-09-23 06:44:00,53.6,51.3,29.64,East,90,0.0,-999.0,92,-99.99,,,0.00,Acu-Link.com,2013-09-23 11:44:00,
2013-09-23 06:59:00,54.0,51.4,29.65,East,90,0.0,-999.0,91,-99.99,,,0.00,Acu-Link.com,2013-09-23 11:59:00,
2013-09-23 07:14:00,54.1,51.2,29.65,East,90,0.0,-999.0,90,-99.99,,,0.00,Acu-Link.com,2013-09-23 12:14:00,
2013-09-23 07:29:00,53.6,50.4,29.66,East,90,0.0,-999.0,89,-99.99,,,0.00,Acu-Link.com,2013-09-23 12:29:00,
2013-09-23 07:44:00,55.8,52.3,29.66,East,90,1.7,-999.0,88,-99.99,,,0.00,Acu-Link.com,2013-09-23 12:44:00,
2013-09-23 08:00:00,58.6,53.1,29.66,ESE,112,1.7,-999.0,82,-99.99,,,0.00,Acu-Link.com,2013-09-23 13:00:00,
2013-09-23 08:15:00,62.4,53.6,29.66,ESE,112,2.2,-999.0,73,-99.99,,,0.00,Acu-Link.com,2013-09-23 13:15:00,
2013-09-23 08:30:00,65.8,53.3,29.66,ESE,112,2.7,-999.0,64,-99.99,,,0.00,Acu-Link.com,2013-09-23 13:30:00,
2013-09-23 08:45:00,67.3,53.8,29.66,SE,135,4.2,-999.0,62,-99.99,,,0.00,Acu-Link.com,2013-09-23 13:45:00,
2013-09-23 09:00:00,69.3,54.3,29.66,SE,135,2.7,-999.0,59,-99.99,,,0.00,Acu-Link.com,2013-09-23 14:00:00,
2013-09-23 09:15:00,71.6,54.1,29.66,SE,135,2.7,-999.0,54,-99.99,,,0.00,Acu-Link.com,2013-09-23 14:15:00,
2013-09-23 09:31:00,72.9,55.3,29.67,SSE,157,3.7,-999.0,54,-99.99,,,0.00,Acu-Link.com,2013-09-23 14:31:00,
2013-09-23 09:46:00,71.2,52.7,29.68,SSW,202,4.7,-999.0,52,-99.99,,,0.00,Acu-Link.com,2013-09-23 14:46:00,
2013-09-23 10:01:00,72.1,54.0,29.68,SSE,157,3.2,-999.0,53,-99.99,,,0.00,Acu-Link.com,2013-09-23 15:01:00,
2013-09-23 10:17:00,74.1,54.3,29.67,West,270,2.2,-999.0,50,-99.99,,,0.00,Acu-Link.com,2013-09-23 15:17:00,
2013-09-23 10:32:00,75.4,53.8,29.67,South,180,3.2,-999.0,47,-99.99,,,0.00,Acu-Link.com,2013-09-23 15:32:00,
2013-09-23 10:47:00,77.4,54.4,29.68,SSW,202,4.2,-999.0,45,-99.99,,,0.00,Acu-Link.com,2013-09-23 15:47:00,
2013-09-23 11:02:00,79.5,53.7,29.68,South,180,3.7,-999.0,41,-99.99,,,0.00,Acu-Link.com,2013-09-23 16:02:00,
2013-09-23 11:17:00,80.4,53.2,29.67,SSE,157,0.0,-999.0,39,-99.99,,,0.00,Acu-Link.com,2013-09-23 16:17:00,
2013-09-23 11:33:00,81.1,50.8,29.66,SSE,157,5.8,-999.0,35,-99.99,,,0.00,Acu-Link.com,2013-09-23 16:33:00,
2013-09-23 11:48:00,82.8,52.3,29.66,South,180,4.7,-999.0,35,-99.99,,,0.00,Acu-Link.com,2013-09-23 16:48:00,
2013-09-23 12:03:00,82.6,52.9,29.66,South,180,2.2,-999.0,36,-99.99,,,0.00,Acu-Link.com,2013-09-23 17:03:00,
2013-09-23 12:19:00,84.7,52.4,29.66,South,180,2.7,-999.0,33,-99.99,,,0.00,Acu-Link.com,2013-09-23 17:19:00,
2013-09-23 12:34:00,84.4,52.1,29.65,SSW,202,3.7,-999.0,33,-99.99,,,0.00,Acu-Link.com,2013-09-23 17:34:00,
2013-09-23 12:49:00,84.9,49.1,29.65,SW,225,6.3,-999.0,29,-99.99,,,0.00,Acu-Link.com,2013-09-23 17:49:00,
2013-09-23 13:05:00,86.2,48.3,29.65,South,180,3.7,-999.0,27,-99.99,,,0.00,Acu-Link.com,2013-09-23 18:05:00,
2013-09-23 13:20:00,86.5,50.4,29.63,SW,225,4.7,-999.0,29,-99.99,,,0.00,Acu-Link.com,2013-09-23 18:20:00,
2013-09-23 13:35:00,84.9,47.2,29.62,SSE,157,5.8,-999.0,27,-99.99,,,0.00,Acu-Link.com,2013-09-23 18:35:00,
2013-09-23 13:50:00,86.9,49.8,29.62,West,270,3.7,-999.0,28,-99.99,,,0.00,Acu-Link.com,2013-09-23 18:50:00,
2013-09-23 14:06:00,88.0,49.8,29.61,ESE,112,4.7,-999.0,27,-99.99,,,0.00,Acu-Link.com,2013-09-23 19:06:00,
2013-09-23 14:21:00,88.3,52.0,29.60,SSW,202,5.8,-999.0,29,-99.99,,,0.00,Acu-Link.com,2013-09-23 19:21:00,
2013-09-23 14:36:00,87.3,48.2,29.60,West,270,7.8,-999.0,26,-99.99,,,0.00,Acu-Link.com,2013-09-23 19:36:00,
2013-09-23 14:51:00,90.0,50.5,29.60,South,180,2.2,-999.0,26,-99.99,,,0.00,Acu-Link.com,2013-09-23 19:51:00,
2013-09-23 15:07:00,90.5,51.9,29.60,SW,225,4.2,-999.0,27,-99.99,,,0.00,Acu-Link.com,2013-09-23 20:07:00,
2013-09-23 15:22:00,89.1,50.7,29.58,SSE,157,2.2,-999.0,27,-99.99,,,0.00,Acu-Link.com,2013-09-23 20:22:00,
2013-09-23 15:37:00,90.0,49.4,29.58,SE,135,3.2,-999.0,25,-99.99,,,0.00,Acu-Link.com,2013-09-23 20:37:00,
2013-09-23 15:53:00,90.0,51.5,29.58,SSW,202,4.7,-999.0,27,-99.99,,,0.00,Acu-Link.com,2013-09-23 20:53:00,
2013-09-23 16:08:00,89.1,50.7,29.57,SSW,202,4.7,-999.0,27,-99.99,,,0.00,Acu-Link.com,2013-09-23 21:08:00,
2013-09-23 16:23:00,91.4,51.7,29.58,West,270,1.1,-999.0,26,-99.99,,,0.00,Acu-Link.com,2013-09-23 21:23:00,
2013-09-23 16:38:00,88.3,50.0,29.57,SSW,202,2.7,-999.0,27,-99.99,,,0.00,Acu-Link.com,2013-09-23 21:38:00,
2013-09-23 16:54:00,89.8,49.2,29.57,SE,135,4.2,-999.0,25,-99.99,,,0.00,Acu-Link.com,2013-09-23 21:54:00,
2013-09-23 17:09:00,90.1,51.6,29.57,South,180,2.7,-999.0,27,-99.99,,,0.00,Acu-Link.com,2013-09-23 22:09:00,
2013-09-23 17:24:00,89.1,49.7,29.57,SW,225,7.8,-999.0,26,-99.99,,,0.00,Acu-Link.com,2013-09-23 22:24:00,
2013-09-23 17:39:00,89.6,51.1,29.56,South,180,2.7,-999.0,27,-99.99,,,0.00,Acu-Link.com,2013-09-23 22:39:00,
2013-09-23 17:55:00,89.2,50.8,29.58,West,270,3.2,-999.0,27,-99.99,,,0.00,Acu-Link.com,2013-09-23 22:55:00,
2013-09-23 18:10:00,87.8,49.6,29.58,SSE,157,2.7,-999.0,27,-99.99,,,0.00,Acu-Link.com,2013-09-23 23:10:00,
2013-09-23 18:25:00,87.4,49.3,29.58,ESE,112,1.1,-999.0,27,-99.99,,,0.00,Acu-Link.com,2013-09-23 23:25:00,
2013-09-23 18:40:00,88.5,50.2,29.58,SSE,157,2.2,-999.0,27,-99.99,,,0.00,Acu-Link.com,2013-09-23 23:40:00,
2013-09-23 18:55:00,86.4,50.4,29.59,SSE,157,0.0,-999.0,29,-99.99,,,0.00,Acu-Link.com,2013-09-23 23:55:00,
2013-09-23 19:10:00,85.3,51.2,29.59,SSE,157,0.0,-999.0,31,-99.99,,,0.00,Acu-Link.com,2013-09-24 00:10:00,
2013-09-23 19:26:00,82.9,51.6,29.60,SE,135,0.0,-999.0,34,-99.99,,,0.00,Acu-Link.com,2013-09-24 00:26:00,
2013-09-23 19:41:00,80.2,51.5,29.60,SE,135,1.1,-999.0,37,-99.99,,,0.00,Acu-Link.com,2013-09-24 00:41:00,
2013-09-23 19:56:00,78.3,51.3,29.60,ESE,112,1.7,-999.0,39,-99.99,,,0.00,Acu-Link.com,2013-09-24 00:56:00,
2013-09-23 20:12:00,77.4,51.8,29.60,ESE,112,2.2,-999.0,41,-99.99,,,0.00,Acu-Link.com,2013-09-24 01:12:00,
2013-09-23 20:27:00,76.5,51.7,29.61,SE,135,2.2,-999.0,42,-99.99,,,0.00,Acu-Link.com,2013-09-24 01:27:00,
2013-09-23 20:42:00,75.7,51.0,29.61,SE,135,2.7,-999.0,42,-99.99,,,0.00,Acu-Link.com,2013-09-24 01:42:00,
2013-09-23 20:57:00,74.8,50.8,29.62,SE,135,2.7,-999.0,43,-99.99,,,0.00,Acu-Link.com,2013-09-24 01:57:00,
2013-09-23 21:12:00,74.3,51.6,29.62,SE,135,2.7,-999.0,45,-99.99,,,0.00,Acu-Link.com,2013-09-24 02:12:00,
2013-09-23 21:27:00,73.6,51.5,29.63,SSE,157,2.7,-999.0,46,-99.99,,,0.00,Acu-Link.com,2013-09-24 02:27:00,
2013-09-23 21:43:00,73.2,51.2,29.63,SSE,157,3.2,-999.0,46,-99.99,,,0.00,Acu-Link.com,2013-09-24 02:43:00,
2013-09-23 21:58:00,72.9,51.5,29.65,SE,135,3.7,-999.0,47,-99.99,,,0.00,Acu-Link.com,2013-09-24 02:58:00,
2013-09-23 22:13:00,72.3,51.5,29.64,SSE,157,2.7,-999.0,48,-99.99,,,0.00,Acu-Link.com,2013-09-24 03:13:00,
2013-09-23 22:28:00,71.8,52.1,29.65,SE,135,1.1,-999.0,50,-99.99,,,0.00,Acu-Link.com,2013-09-24 03:28:00,
2013-09-23 22:43:00,70.9,51.9,29.65,SE,135,0.0,-999.0,51,-99.99,,,0.00,Acu-Link.com,2013-09-24 03:43:00,
2013-09-23 22:59:00,69.8,51.9,29.66,SE,135,0.0,-999.0,53,-99.99,,,0.00,Acu-Link.com,2013-09-24 03:59:00,
2013-09-23 23:14:00,68.9,52.5,29.67,SE,135,0.0,-999.0,56,-99.99,,,0.00,Acu-Link.com,2013-09-24 04:14:00,
2013-09-23 23:29:00,67.8,52.5,29.67,SE,135,0.0,-999.0,58,-99.99,,,0.00,Acu-Link.com,2013-09-24 04:29:00,
2013-09-23 23:45:00,68.0,52.7,29.67,SE,135,0.0,-999.0,58,-99.99,,,0.00,Acu-Link.com,2013-09-24 04:45:00,